Time;durP1;ratioP1;P1;durP2;ratioP2;P2;SDS_P1;SDS_P2;PMS_P1;PMS_P2;Temp;Humidity;BMP_temperature;BMP_pressure;BME280_temperature;BME280_humidity;BME280_pressure;Samples;Min_cycle;Max_cycle;Signal;HPM_P1;HPM_P2
2021/08/26 00:00:29;;;;;;;7.05;3.50;;;17.50;57.60;;;;;;5054353;28;20021;-67
2021/08/26 00:05:50;;;;;;;4.25;2.97;;;17.50;57.60;;;;;;5054597;28;20147;-67
2021/08/26 00:08:18;;;;;;;6.40;3.10;;;17.50;57.50;;;;;;5046095;28;20367;-67
2021/08/26 00:10:44;;;;;;;8.60;4.20;;;17.50;57.60;;;;;;5053783;28;20117;-67
2021/08/26 00:13:11;;;;;;;7.00;3.90;;;17.50;57.70;;;;;;5054119;28;20108;-67
2021/08/26 00:15:41;;;;;;;5.40;3.58;;;17.50;57.50;;;;;;5054018;28;20419;-67
2021/08/26 00:18:08;;;;;;;7.65;4.00;;;17.50;57.60;;;;;;5054064;28;20145;-67
2021/08/26 00:20:33;;;;;;;5.13;3.70;;;17.50;57.70;;;;;;5040300;28;20029;-67
2021/08/26 00:22:59;;;;;;;5.63;3.60;;;17.50;57.90;;;;;;5052633;28;20028;-67
2021/08/26 00:25:25;;;;;;;7.25;3.38;;;17.60;57.70;;;;;;5053937;28;20025;-67
2021/08/26 00:27:51;;;;;;;8.65;3.40;;;17.60;57.80;;;;;;5053800;28;20110;-67
2021/08/26 00:30:17;;;;;;;6.35;3.90;;;17.60;57.70;;;;;;5052274;28;20045;-67
2021/08/26 00:32:43;;;;;;;8.60;3.30;;;17.60;57.70;;;;;;5041721;28;20037;-67
2021/08/26 00:35:10;;;;;;;5.00;3.35;;;17.60;57.70;;;;;;5036304;28;20096;-68
2021/08/26 00:37:35;;;;;;;4.88;3.47;;;17.60;57.90;;;;;;5052646;28;20493;-67
2021/08/26 00:40:02;;;;;;;5.82;3.35;;;17.60;57.70;;;;;;5052469;28;20032;-67
2021/08/26 00:42:28;;;;;;;6.70;4.03;;;17.60;57.70;;;;;;5068668;28;20428;-67
2021/08/26 00:44:54;;;;;;;4.88;3.55;;;17.50;57.90;;;;;;5072410;28;20025;-67
2021/08/26 00:47:23;;;;;;;6.05;3.60;;;17.60;57.90;;;;;;5053434;28;20040;-68
2021/08/26 00:49:54;;;;;;;8.88;4.05;;;17.60;58.10;;;;;;5052393;28;20052;-67
2021/08/26 00:52:20;;;;;;;6.18;3.38;;;17.60;58.00;;;;;;5051578;28;20028;-67
2021/08/26 00:54:46;;;;;;;6.43;3.45;;;17.50;57.80;;;;;;5052394;28;20028;-68
2021/08/26 00:57:12;;;;;;;6.63;3.75;;;17.60;58.00;;;;;;5051981;28;20025;-67
2021/08/26 00:59:38;;;;;;;8.73;3.90;;;17.60;58.40;;;;;;5052330;28;20364;-67
2021/08/26 01:02:33;;;;;;;5.22;3.38;;;17.50;58.40;;;;;;5052276;28;20059;-67
2021/08/26 01:05:14;;;;;;;4.32;3.17;;;17.50;58.50;;;;;;5032290;28;20034;-68
2021/08/26 01:07:47;;;;;;;4.55;3.05;;;17.50;58.30;;;;;;5032239;28;20538;-67
2021/08/26 01:10:16;;;;;;;5.72;3.50;;;17.50;58.20;;;;;;5032197;28;20529;-67
2021/08/26 01:12:44;;;;;;;4.60;2.95;;;17.50;58.20;;;;;;5036644;28;20028;-67
2021/08/26 01:15:10;;;;;;;5.13;3.13;;;17.50;58.20;;;;;;5051910;28;20033;-67
2021/08/26 01:17:36;;;;;;;8.60;3.75;;;17.50;58.30;;;;;;5052954;28;20029;-67
2021/08/26 01:20:07;;;;;;;6.88;3.70;;;17.50;58.40;;;;;;5052166;28;20083;-67
2021/08/26 01:22:35;;;;;;;6.50;4.38;;;17.50;58.40;;;;;;5052604;28;20041;-67
2021/08/26 01:25:12;;;;;;;8.13;4.32;;;17.50;58.50;;;;;;5052913;28;20029;-67
2021/08/26 01:27:43;;;;;;;6.07;3.45;;;17.50;58.80;;;;;;5053163;28;20108;-67
2021/08/26 01:30:12;;;;;;;7.55;4.68;;;17.50;58.60;;;;;;5052520;28;20048;-67
2021/08/26 01:32:38;;;;;;;7.18;4.18;;;17.50;58.90;;;;;;5052602;28;20017;-68
2021/08/26 01:35:05;;;;;;;5.00;3.38;;;17.50;58.70;;;;;;5052755;28;20028;-68
2021/08/26 01:37:31;;;;;;;6.88;4.15;;;17.50;58.80;;;;;;5052335;28;20024;-68
2021/08/26 01:39:57;;;;;;;6.90;3.90;;;17.50;58.70;;;;;;5052758;28;20025;-67
2021/08/26 01:42:26;;;;;;;6.10;3.63;;;17.50;58.80;;;;;;5069577;28;20474;-67
2021/08/26 01:44:56;;;;;;;5.97;3.65;;;17.50;58.80;;;;;;5072661;28;20024;-67
2021/08/26 01:47:23;;;;;;;5.57;3.70;;;17.50;58.80;;;;;;5071769;28;20020;-67
2021/08/26 01:49:51;;;;;;;8.00;3.75;;;17.50;58.90;;;;;;5052641;28;20367;-67
2021/08/26 01:52:19;;;;;;;6.03;3.35;;;17.50;58.80;;;;;;5052700;28;20044;-67
2021/08/26 01:54:56;;;;;;;4.85;3.08;;;17.50;58.90;;;;;;5052701;28;20021;-67
2021/08/26 01:57:26;;;;;;;11.63;3.90;;;17.50;59.10;;;;;;5052533;28;20025;-67
2021/08/26 01:59:53;;;;;;;7.97;3.60;;;17.50;59.10;;;;;;5032581;28;20025;-67
2021/08/26 02:02:19;;;;;;;6.00;3.60;;;17.50;59.00;;;;;;5032637;28;20169;-67
2021/08/26 02:04:45;;;;;;;7.75;4.68;;;17.50;58.90;;;;;;5035401;28;20026;-67
2021/08/26 02:07:11;;;;;;;8.55;4.20;;;17.50;59.30;;;;;;5036431;28;20040;-67
2021/08/26 02:09:37;;;;;;;7.38;3.75;;;17.50;59.50;;;;;;5054499;28;20040;-67
2021/08/26 02:12:03;;;;;;;11.95;4.35;;;17.50;59.70;;;;;;5056365;28;20025;-67
2021/08/26 02:14:29;;;;;;;6.25;3.83;;;17.50;59.90;;;;;;5056224;28;20074;-68
2021/08/26 02:16:54;;;;;;;11.43;3.40;;;17.50;59.80;;;;;;5056215;28;20025;-68
2021/08/26 02:19:20;;;;;;;6.50;3.95;;;17.50;59.60;;;;;;5050036;28;20037;-68
2021/08/26 02:21:46;;;;;;;6.03;3.75;;;17.50;59.50;;;;;;5056167;28;20025;-67
2021/08/26 02:24:12;;;;;;;7.20;4.20;;;17.50;60.30;;;;;;5056094;28;20037;-67
2021/08/26 02:26:38;;;;;;;8.38;4.22;;;17.40;59.80;;;;;;5056005;28;20032;-67
2021/08/26 02:29:04;;;;;;;7.22;4.30;;;17.40;60.00;;;;;;5061756;28;20033;-67
2021/08/26 02:31:31;;;;;;;6.60;4.00;;;17.40;60.00;;;;;;5075941;28;20104;-67
2021/08/26 02:33:56;;;;;;;6.50;4.13;;;17.40;59.80;;;;;;5075862;28;20093;-67
2021/08/26 02:36:23;;;;;;;7.30;3.70;;;17.40;59.70;;;;;;5075879;28;20025;-67
2021/08/26 02:38:49;;;;;;;7.05;3.95;;;17.40;59.70;;;;;;5056023;28;20029;-67
2021/08/26 02:41:15;;;;;;;6.75;4.10;;;17.40;59.70;;;;;;5055871;28;20028;-68
2021/08/26 02:43:41;;;;;;;7.53;4.55;;;17.40;59.70;;;;;;5055671;28;20096;-67
2021/08/26 02:46:07;;;;;;;7.78;4.30;;;17.40;59.60;;;;;;5054437;28;20107;-67
2021/08/26 02:48:33;;;;;;;8.82;5.93;;;17.40;59.60;;;;;;5055260;28;20474;-67
2021/08/26 02:50:59;;;;;;;10.48;6.25;;;17.40;59.70;;;;;;5055624;28;20013;-68
2021/08/26 02:53:25;;;;;;;23.67;13.93;;;17.40;59.60;;;;;;5055539;28;20067;-68
2021/08/26 02:55:51;;;;;;;20.77;12.07;;;17.40;59.80;;;;;;5055479;28;20492;-67
2021/08/26 02:58:16;;;;;;;19.00;11.02;;;17.40;60.50;;;;;;5055462;28;20030;-67
2021/08/26 03:00:42;;;;;;;18.40;9.32;;;17.40;60.80;;;;;;5055363;28;20029;-67
2021/08/26 03:03:08;;;;;;;12.93;7.50;;;17.40;60.80;;;;;;5055119;28;20437;-67
2021/08/26 03:05:34;;;;;;;12.25;6.65;;;17.40;60.80;;;;;;5055312;28;20521;-67
2021/08/26 03:08:00;;;;;;;9.55;5.50;;;17.40;61.20;;;;;;5055142;28;20028;-68
2021/08/26 03:10:29;;;;;;;9.00;4.75;;;17.30;61.10;;;;;;5055238;28;20501;-67
2021/08/26 03:12:55;;;;;;;8.85;5.53;;;17.30;61.30;;;;;;5043734;28;20017;-67
2021/08/26 03:15:21;;;;;;;10.65;6.55;;;17.30;61.40;;;;;;5054244;28;20058;-67
2021/08/26 03:17:47;;;;;;;11.63;6.15;;;17.30;61.40;;;;;;5055071;28;20013;-67
2021/08/26 03:20:14;;;;;;;9.30;5.32;;;17.30;61.40;;;;;;5054960;28;20078;-66
2021/08/26 03:22:40;;;;;;;12.45;6.32;;;17.30;61.50;;;;;;5054641;28;20166;-67
2021/08/26 03:25:06;;;;;;;8.52;5.05;;;17.30;61.50;;;;;;5074368;28;20111;-67
2021/08/26 03:27:33;;;;;;;10.38;6.18;;;17.30;61.60;;;;;;5074820;28;20032;-67
2021/08/26 03:29:59;;;;;;;11.18;5.38;;;17.30;61.80;;;;;;5074546;28;20040;-67
2021/08/26 03:32:25;;;;;;;8.70;5.10;;;17.30;61.80;;;;;;5074769;28;20040;-68
2021/08/26 03:34:50;;;;;;;9.32;4.35;;;17.30;61.80;;;;;;5074796;28;20476;-67
2021/08/26 03:37:17;;;;;;;7.80;4.65;;;17.20;62.00;;;;;;5074639;28;20025;-68
2021/08/26 03:39:42;;;;;;;7.90;4.75;;;17.20;62.10;;;;;;5074659;28;20021;-68
2021/08/26 03:42:08;;;;;;;6.65;4.03;;;17.20;62.10;;;;;;5071155;28;20102;-67
2021/08/26 03:44:34;;;;;;;9.50;4.63;;;17.20;62.10;;;;;;5061812;28;20032;-67
2021/08/26 03:47:00;;;;;;;11.98;7.95;;;17.30;62.20;;;;;;5054524;28;20033;-67
2021/08/26 03:49:28;;;;;;;12.93;8.32;;;17.20;62.00;;;;;;5054431;28;20028;-68
2021/08/26 03:51:55;;;;;;;11.35;6.50;;;17.30;62.00;;;;;;5054378;28;20053;-67
2021/08/26 03:54:21;;;;;;;11.23;6.10;;;17.30;62.10;;;;;;5054387;28;20028;-67
2021/08/26 03:56:47;;;;;;;6.97;4.70;;;17.30;61.80;;;;;;5054314;28;20021;-68
2021/08/26 03:59:13;;;;;;;6.68;4.78;;;17.30;61.90;;;;;;5054338;28;20114;-67
2021/08/26 04:01:39;;;;;;;6.43;4.13;;;17.30;61.90;;;;;;5053992;28;20112;-68
2021/08/26 04:04:05;;;;;;;8.65;5.00;;;17.30;61.70;;;;;;5054190;28;20481;-67
2021/08/26 04:06:31;;;;;;;6.65;4.38;;;17.30;61.80;;;;;;5054086;28;20040;-68
2021/08/26 04:08:56;;;;;;;8.45;4.97;;;17.30;61.70;;;;;;5053885;28;20040;-67
2021/08/26 04:11:22;;;;;;;12.43;5.32;;;17.30;61.80;;;;;;5053865;28;20049;-67
2021/08/26 04:13:48;;;;;;;7.45;4.93;;;17.40;61.70;;;;;;5053986;28;20029;-67
2021/08/26 04:16:14;;;;;;;10.02;5.22;;;17.30;61.60;;;;;;5053885;28;20516;-67
2021/08/26 04:18:40;;;;;;;7.82;4.75;;;17.30;61.60;;;;;;5052768;28;20037;-67
2021/08/26 04:21:06;;;;;;;8.70;5.00;;;17.40;61.50;;;;;;5052106;28;20034;-68
2021/08/26 04:23:32;;;;;;;9.10;5.45;;;17.40;61.30;;;;;;5052970;28;20139;-67
2021/08/26 04:25:57;;;;;;;8.40;5.05;;;17.40;61.20;;;;;;5053458;28;20029;-67
2021/08/26 04:28:23;;;;;;;7.53;4.68;;;17.40;61.10;;;;;;5053130;28;20025;-67
2021/08/26 04:30:49;;;;;;;15.05;6.35;;;17.40;61.00;;;;;;5053592;28;20033;-67
2021/08/26 04:33:15;;;;;;;12.55;6.25;;;17.40;60.90;;;;;;5053554;28;20022;-67
2021/08/26 04:35:41;;;;;;;11.48;6.80;;;17.50;60.90;;;;;;5035625;28;20029;-67
2021/08/26 04:38:06;;;;;;;23.27;12.55;;;17.50;61.60;;;;;;5053565;28;20359;-67
2021/08/26 04:40:32;;;;;;;23.15;12.93;;;17.50;60.90;;;;;;5053518;28;20470;-67
2021/08/26 04:42:58;;;;;;;14.45;8.65;;;17.50;60.80;;;;;;5035446;28;20033;-67
2021/08/26 04:45:24;;;;;;;8.18;6.32;;;17.50;60.70;;;;;;5053211;28;20067;-67
2021/08/26 04:47:50;;;;;;;14.18;5.85;;;17.50;60.60;;;;;;5053258;28;20040;-67
2021/08/26 04:50:16;;;;;;;9.48;6.15;;;17.50;60.60;;;;;;5053130;28;20035;-68
2021/08/26 04:52:41;;;;;;;11.32;7.13;;;17.50;60.50;;;;;;5053195;28;20025;-67
2021/08/26 04:55:08;;;;;;;10.02;5.97;;;17.60;60.50;;;;;;5053288;28;20021;-67
2021/08/26 04:57:33;;;;;;;14.38;8.95;;;17.60;60.40;;;;;;5053175;28;20502;-67
2021/08/26 04:59:59;;;;;;;12.10;8.13;;;17.60;60.30;;;;;;5053102;28;20032;-68
2021/08/26 05:02:25;;;;;;;13.45;7.78;;;17.60;60.30;;;;;;5053184;28;20029;-67
2021/08/26 05:04:51;;;;;;;12.23;7.13;;;17.60;60.30;;;;;;5052943;28;20195;-68
2021/08/26 05:07:16;;;;;;;9.32;6.57;;;17.70;60.30;;;;;;5052974;28;20386;-67
2021/08/26 05:09:42;;;;;;;15.68;7.18;;;17.70;60.30;;;;;;5052891;28;20025;-67
2021/08/26 05:12:08;;;;;;;15.32;6.45;;;17.70;60.30;;;;;;5052178;28;20547;-67
2021/08/26 05:14:34;;;;;;;10.48;6.10;;;17.70;60.30;;;;;;5032424;28;20471;-67
2021/08/26 05:17:00;;;;;;;12.85;6.68;;;17.80;60.30;;;;;;5031783;28;20021;-67
2021/08/26 05:19:26;;;;;;;8.57;6.00;;;17.80;60.30;;;;;;5030877;28;20113;-68
2021/08/26 05:21:52;;;;;;;10.77;5.28;;;17.90;60.30;;;;;;5032885;28;20593;-67
2021/08/26 05:24:18;;;;;;;17.55;5.40;;;18.00;60.40;;;;;;5032919;28;20072;-67
2021/08/26 05:26:44;;;;;;;9.77;5.20;;;18.00;60.40;;;;;;5032935;28;20030;-68
2021/08/26 05:29:10;;;;;;;10.65;5.30;;;18.10;60.30;;;;;;5032636;28;20096;-67
2021/08/26 05:31:36;;;;;;;14.27;5.68;;;18.10;60.10;;;;;;5039546;28;20078;-67
2021/08/26 05:34:02;;;;;;;13.75;6.50;;;18.20;60.00;;;;;;5055923;28;20059;-67
2021/08/26 05:36:28;;;;;;;9.63;4.82;;;18.20;59.90;;;;;;5057914;28;20075;-65
2021/08/26 05:38:54;;;;;;;16.13;5.70;;;18.20;59.80;;;;;;5053735;28;20409;-65
2021/08/26 05:41:20;;;;;;;12.60;5.30;;;18.30;59.80;;;;;;5055206;28;20033;-66
2021/08/26 05:43:46;;;;;;;11.55;5.82;;;18.30;59.70;;;;;;5056651;28;20036;-66
2021/08/26 05:46:11;;;;;;;8.82;4.88;;;18.30;59.70;;;;;;5056789;28;20028;-66
2021/08/26 05:48:37;;;;;;;10.75;5.78;;;18.40;59.50;;;;;;5056523;28;20029;-66
2021/08/26 05:51:03;;;;;;;10.50;5.45;;;18.40;59.40;;;;;;5055408;28;20380;-67
2021/08/26 05:53:29;;;;;;;11.52;5.53;;;18.40;59.40;;;;;;5056615;28;20029;-66
2021/08/26 05:55:55;;;;;;;11.05;5.97;;;18.50;59.30;;;;;;5055324;28;20032;-66
2021/08/26 05:58:21;;;;;;;10.07;5.40;;;18.50;59.20;;;;;;5056254;28;20547;-65
2021/08/26 06:00:49;;;;;;;10.05;5.93;;;18.50;59.10;;;;;;5056353;28;20017;-66
2021/08/26 06:03:16;;;;;;;9.10;5.63;;;18.50;59.10;;;;;;5056193;28;20116;-66
2021/08/26 06:05:42;;;;;;;15.75;6.07;;;18.60;59.20;;;;;;5056316;28;20025;-66
2021/08/26 06:08:08;;;;;;;13.50;6.95;;;18.60;59.10;;;;;;5056006;28;20390;-66
2021/08/26 06:10:36;;;;;;;9.52;6.97;;;18.60;58.80;;;;;;5054591;28;20036;-66
2021/08/26 06:13:02;;;;;;;10.23;6.82;;;18.70;58.80;;;;;;5055768;28;20017;-66
2021/08/26 06:15:28;;;;;;;12.05;6.72;;;18.70;58.70;;;;;;5056131;28;20433;-67
2021/08/26 06:17:54;;;;;;;9.85;6.13;;;18.70;58.70;;;;;;5035034;28;20399;-66
2021/08/26 06:20:20;;;;;;;13.07;7.82;;;18.80;58.70;;;;;;5054607;28;20112;-66
2021/08/26 06:22:45;;;;;;;10.00;6.53;;;18.90;58.60;;;;;;5045863;28;20053;-66
2021/08/26 06:25:13;;;;;;;10.15;7.05;;;18.90;58.60;;;;;;5055123;28;20021;-66
2021/08/26 06:27:39;;;;;;;10.48;7.03;;;19.00;58.60;;;;;;5055512;28;20059;-66
2021/08/26 06:30:07;;;;;;;10.13;6.18;;;19.10;58.40;;;;;;5055269;28;20052;-67
2021/08/26 06:32:32;;;;;;;9.43;6.47;;;19.20;58.20;;;;;;5056564;28;20040;-67
2021/08/26 06:34:58;;;;;;;11.40;7.05;;;19.30;58.10;;;;;;5056025;28;20391;-67
2021/08/26 06:37:25;;;;;;;9.88;5.75;;;19.20;57.80;;;;;;5055705;28;20415;-66
2021/08/26 06:39:51;;;;;;;9.82;6.18;;;19.30;57.70;;;;;;5057062;28;20029;-67
2021/08/26 06:42:17;;;;;;;13.75;6.40;;;19.40;57.60;;;;;;5066560;28;20036;-67
2021/08/26 06:44:43;;;;;;;11.85;6.82;;;19.40;57.70;;;;;;5068160;28;20028;-67
2021/08/26 06:47:08;;;;;;;9.40;6.40;;;19.50;57.50;;;;;;5053455;28;20040;-67
2021/08/26 06:49:34;;;;;;;15.60;6.65;;;19.50;57.50;;;;;;5053857;28;20069;-67
2021/08/26 06:52:00;;;;;;;12.15;7.45;;;19.50;57.60;;;;;;5054318;28;20028;-67
2021/08/26 06:54:26;;;;;;;10.10;6.57;;;19.60;57.50;;;;;;5054482;28;20013;-67
2021/08/26 06:56:52;;;;;;;12.23;7.22;;;19.60;57.40;;;;;;5055551;28;20040;-66
2021/08/26 06:59:17;;;;;;;11.13;7.10;;;19.70;57.40;;;;;;5055377;28;20033;-67
2021/08/26 07:01:43;;;;;;;11.50;7.30;;;19.80;57.50;;;;;;5055331;28;20025;-66
2021/08/26 07:04:09;;;;;;;11.02;5.60;;;19.90;57.20;;;;;;5055539;28;20533;-67
2021/08/26 07:06:35;;;;;;;9.20;6.00;;;20.00;57.00;;;;;;5055087;28;20055;-66
2021/08/26 07:09:01;;;;;;;8.43;5.45;;;20.10;56.80;;;;;;5055051;28;20135;-66
2021/08/26 07:11:26;;;;;;;11.07;5.65;;;20.10;56.70;;;;;;5054961;28;20052;-66
2021/08/26 07:13:52;;;;;;;10.75;5.90;;;20.20;56.20;;;;;;5037173;28;20146;-67
2021/08/26 07:16:18;;;;;;;9.40;5.68;;;20.30;56.00;;;;;;5037112;28;20260;-66
2021/08/26 07:18:44;;;;;;;11.13;6.03;;;20.30;55.70;;;;;;5053892;28;20386;-66
2021/08/26 07:21:10;;;;;;;7.32;5.05;;;20.30;55.50;;;;;;5036930;28;20029;-67
2021/08/26 07:23:36;;;;;;;8.68;5.55;;;20.40;55.50;;;;;;5038462;28;20394;-66
2021/08/26 07:26:02;;;;;;;13.10;5.10;;;20.40;55.40;;;;;;5034203;28;20099;-67
2021/08/26 07:28:28;;;;;;;7.43;5.20;;;20.40;55.30;;;;;;5033641;28;20054;-66
2021/08/26 07:30:53;;;;;;;9.13;5.38;;;20.50;55.50;;;;;;5032328;28;20501;-67
2021/08/26 07:33:19;;;;;;;9.23;5.50;;;20.60;55.50;;;;;;5033596;28;20530;-67
2021/08/26 07:35:45;;;;;;;9.75;5.35;;;20.60;55.40;;;;;;5033766;28;20048;-67
2021/08/26 07:38:11;;;;;;;9.38;5.05;;;20.80;55.00;;;;;;5033806;28;20029;-66
2021/08/26 07:40:37;;;;;;;9.20;5.50;;;20.90;55.20;;;;;;5033426;28;20079;-67
2021/08/26 07:43:02;;;;;;;8.70;4.97;;;21.00;55.00;;;;;;5045324;28;20021;-67
2021/08/26 07:45:28;;;;;;;7.85;5.43;;;21.10;54.80;;;;;;5053332;28;20028;-66
2021/08/26 07:47:54;;;;;;;6.70;5.10;;;21.20;54.50;;;;;;5053548;28;20684;-67
2021/08/26 07:50:21;;;;;;;9.93;5.43;;;21.20;54.30;;;;;;5053027;28;20116;-67
2021/08/26 07:52:47;;;;;;;10.15;5.68;;;21.30;54.10;;;;;;5053143;28;20028;-67
2021/08/26 07:55:13;;;;;;;8.63;5.20;;;21.30;54.10;;;;;;5061099;28;20104;-67
2021/08/26 07:57:39;;;;;;;12.23;5.68;;;21.20;54.30;;;;;;5073402;28;20099;-67
2021/08/26 08:00:06;;;;;;;12.50;6.18;;;21.20;54.40;;;;;;5070056;28;20132;-67
2021/08/26 08:02:32;;;;;;;12.07;5.93;;;21.30;54.90;;;;;;5052447;28;20308;-67
2021/08/26 08:05:01;;;;;;;9.88;5.15;;;21.40;54.60;;;;;;5052853;28;20098;-68
2021/08/26 08:07:26;;;;;;;9.10;5.00;;;21.50;54.70;;;;;;5049084;28;20108;-67
2021/08/26 08:09:52;;;;;;;7.28;4.82;;;21.60;54.50;;;;;;5052570;28;20447;-67
2021/08/26 08:12:18;;;;;;;12.98;5.35;;;21.70;54.50;;;;;;5050638;28;20386;-67
2021/08/26 08:14:44;;;;;;;8.75;4.82;;;21.80;54.10;;;;;;5052070;28;20066;-67
2021/08/26 08:17:11;;;;;;;9.10;5.93;;;22.00;54.60;;;;;;5053026;28;20100;-67
2021/08/26 08:19:37;;;;;;;12.65;5.55;;;22.10;53.40;;;;;;5052905;28;20050;-67
2021/08/26 08:22:03;;;;;;;8.50;5.45;;;22.20;53.20;;;;;;5052563;28;20021;-67
2021/08/26 08:24:29;;;;;;;10.20;5.68;;;22.30;53.20;;;;;;5052453;28;20516;-67
2021/08/26 08:26:55;;;;;;;7.47;4.78;;;22.40;53.20;;;;;;5052277;28;20029;-67
2021/08/26 08:29:21;;;;;;;8.35;5.15;;;22.50;52.90;;;;;;5052313;28;20045;-67
2021/08/26 08:31:47;;;;;;;7.47;4.82;;;22.60;52.70;;;;;;5052710;28;20151;-67
2021/08/26 08:34:13;;;;;;;7.63;5.10;;;22.80;52.60;;;;;;5052419;28;20441;-67
2021/08/26 08:36:39;;;;;;;9.55;4.20;;;22.90;52.10;;;;;;5052456;28;20044;-67
2021/08/26 08:39:06;;;;;;;9.55;4.38;;;23.00;52.00;;;;;;5052722;28;20032;-67
2021/08/26 08:41:32;;;;;;;7.07;4.78;;;23.10;51.90;;;;;;5052611;28;20078;-67
2021/08/26 08:44:01;;;;;;;7.57;5.10;;;23.20;51.40;;;;;;5051801;28;20474;-67
2021/08/26 08:46:28;;;;;;;9.20;5.00;;;23.30;50.50;;;;;;5052207;28;20095;-67
2021/08/26 08:48:56;;;;;;;7.20;4.90;;;23.30;50.40;;;;;;5052080;28;20033;-67
2021/08/26 08:51:23;;;;;;;7.35;4.97;;;23.40;50.50;;;;;;5052192;28;20028;-67
2021/08/26 08:53:49;;;;;;;9.18;5.78;;;23.40;50.30;;;;;;5051955;28;20028;-68
2021/08/26 08:56:16;;;;;;;9.25;5.28;;;23.40;49.80;;;;;;5052320;28;20021;-67
2021/08/26 08:58:42;;;;;;;9.55;5.55;;;23.50;50.60;;;;;;5034268;28;20047;-67
2021/08/26 09:01:12;;;;;;;8.07;5.22;;;23.50;50.50;;;;;;5051822;28;20529;-67
2021/08/26 09:03:38;;;;;;;8.30;5.45;;;23.60;50.20;;;;;;5051631;28;20031;-67
2021/08/26 09:06:05;;;;;;;8.35;4.45;;;23.70;50.30;;;;;;5051132;28;20033;-67
2021/08/26 09:08:32;;;;;;;6.95;5.00;;;23.80;50.40;;;;;;5051934;28;20564;-67
2021/08/26 09:11:21;;;;;;;7.88;5.13;;;23.90;50.00;;;;;;5051695;28;20033;-67
2021/08/26 09:13:47;;;;;;;10.40;5.88;;;24.10;50.00;;;;;;5048291;28;20500;-67
2021/08/26 09:16:14;;;;;;;11.63;5.95;;;24.20;49.10;;;;;;5056478;28;20024;-67
2021/08/26 09:18:41;;;;;;;9.18;5.80;;;24.20;49.30;;;;;;5054348;28;20453;-67
2021/08/26 09:21:10;;;;;;;8.93;5.35;;;24.20;49.20;;;;;;5071896;28;20107;-67
2021/08/26 09:23:55;;;;;;;15.55;5.70;;;24.20;49.30;;;;;;5045804;28;20044;-67
2021/08/26 09:26:23;;;;;;;9.23;6.30;;;24.30;49.70;;;;;;5050790;28;20028;-68
2021/08/26 09:28:50;;;;;;;11.35;5.88;;;24.40;48.60;;;;;;5051576;28;20041;-67
2021/08/26 09:31:22;;;;;;;8.23;5.47;;;24.40;48.70;;;;;;5051895;28;20036;-67
2021/08/26 09:34:00;;;;;;;14.25;5.95;;;24.40;48.60;;;;;;5052094;28;20063;-67
2021/08/26 09:36:46;;;;;;;9.90;6.10;;;24.40;48.90;;;;;;5047159;28;20390;-67
2021/08/26 09:39:14;;;;;;;10.45;6.22;;;24.30;49.30;;;;;;5051664;28;20059;-67
2021/08/26 09:41:50;;;;;;;11.00;6.05;;;24.20;49.20;;;;;;5051795;28;20025;-66
2021/08/26 09:44:23;;;;;;;9.35;5.43;;;24.00;49.30;;;;;;5050749;28;20039;-67
2021/08/26 09:46:51;;;;;;;10.13;5.65;;;23.80;49.90;;;;;;5032460;28;20022;-66
2021/08/26 09:49:20;;;;;;;8.95;5.70;;;23.70;49.70;;;;;;5049524;28;20060;-67
2021/08/26 09:52:06;;;;;;;9.82;5.43;;;23.50;50.10;;;;;;5052633;28;20044;-67
2021/08/26 09:54:43;;;;;;;9.95;6.65;;;23.40;50.10;;;;;;5052730;28;20021;-67
2021/08/26 09:57:30;;;;;;;8.95;6.00;;;23.30;50.10;;;;;;5052655;28;20023;-67
2021/08/26 09:59:56;;;;;;;10.48;6.20;;;23.20;50.40;;;;;;5052529;28;20047;-67
2021/08/26 10:02:24;;;;;;;12.07;6.90;;;23.10;50.20;;;;;;5052458;28;20056;-67
2021/08/26 10:04:50;;;;;;;14.70;6.90;;;23.10;50.00;;;;;;5034609;28;20063;-67
2021/08/26 10:07:17;;;;;;;9.98;6.35;;;23.10;50.20;;;;;;5050708;28;20021;-67
2021/08/26 10:09:44;;;;;;;10.35;6.75;;;23.10;51.00;;;;;;5033730;28;20425;-67
2021/08/26 10:12:12;;;;;;;10.38;6.63;;;23.10;51.40;;;;;;5051284;28;20025;-68
2021/08/26 10:14:52;;;;;;;12.48;7.75;;;23.10;51.20;;;;;;5033412;28;20032;-67
2021/08/26 10:17:18;;;;;;;15.50;7.32;;;23.10;51.40;;;;;;5032487;28;20436;-67
2021/08/26 10:19:44;;;;;;;11.23;7.05;;;23.10;50.60;;;;;;5051817;28;20086;-67
2021/08/26 10:22:11;;;;;;;15.07;7.55;;;23.10;50.40;;;;;;5051822;28;20518;-67
2021/08/26 10:24:37;;;;;;;13.27;8.10;;;23.00;50.40;;;;;;5051920;28;20028;-67
2021/08/26 10:27:13;;;;;;;11.43;6.95;;;23.00;51.00;;;;;;5055897;28;20033;-67
2021/08/26 10:29:44;;;;;;;14.45;8.30;;;22.90;51.20;;;;;;5055628;28;20106;-67
2021/08/26 10:32:24;;;;;;;13.88;8.18;;;22.90;50.50;;;;;;5055818;28;20394;-67
2021/08/26 10:35:10;;;;;;;11.88;7.70;;;22.80;50.60;;;;;;5055858;28;20028;-67
2021/08/26 10:37:54;;;;;;;12.05;7.72;;;22.60;50.40;;;;;;5055873;28;20035;-67
2021/08/26 10:40:26;;;;;;;16.40;8.60;;;22.60;51.00;;;;;;5055885;28;20036;-67
2021/08/26 10:42:54;;;;;;;14.73;7.15;;;22.50;53.30;;;;;;5055825;28;20021;-67
2021/08/26 10:45:24;;;;;;;17.58;9.10;;;22.40;54.40;;;;;;5055687;28;20025;-66
2021/08/26 10:47:51;;;;;;;15.98;8.60;;;22.30;56.30;;;;;;5055953;28;20021;-66
2021/08/26 10:50:20;;;;;;;11.57;7.07;;;22.20;57.60;;;;;;5055611;28;20028;-66
2021/08/26 10:52:54;;;;;;;13.10;8.88;;;22.20;58.60;;;;;;5055586;28;20135;-66
2021/08/26 10:55:39;;;;;;;13.90;8.77;;;22.20;57.40;;;;;;5055627;28;20025;-67
2021/08/26 10:58:26;;;;;;;12.32;8.70;;;22.20;56.80;;;;;;5055539;28;20017;-67
2021/08/26 11:00:59;;;;;;;14.77;8.55;;;22.30;56.30;;;;;;5055388;28;20017;-67
2021/08/26 11:06:12;;;;;;;15.60;9.40;;;22.60;55.80;;;;;;5055559;28;20026;-67
2021/08/26 11:08:39;;;;;;;12.73;8.07;;;22.70;54.90;;;;;;5055233;28;20025;-67
2021/08/26 11:11:28;;;;;;;12.55;8.23;;;22.80;54.30;;;;;;5055264;28;20021;-67
2021/08/26 11:14:17;;;;;;;15.73;9.55;;;22.90;54.20;;;;;;5043416;28;20025;-67
2021/08/26 11:16:49;;;;;;;13.07;8.90;;;22.90;53.00;;;;;;5055119;28;20047;-67
2021/08/26 11:19:14;;;;;;;10.93;7.95;;;22.90;52.50;;;;;;5055191;28;20025;-67
2021/08/26 11:24:12;;;;;;;11.63;7.28;;;22.80;52.10;;;;;;5055092;28;20390;-67
2021/08/26 11:27:09;;;;;;;9.18;6.20;;;22.70;52.00;;;;;;5054989;28;20025;-67
2021/08/26 11:29:36;;;;;;;11.68;6.95;;;22.70;52.00;;;;;;5027342;28;20438;-67
2021/08/26 11:32:11;;;;;;;11.00;6.60;;;22.80;51.80;;;;;;5033746;28;20466;-67
2021/08/26 11:34:38;;;;;;;11.82;7.05;;;22.80;51.60;;;;;;5034919;28;20029;-67
2021/08/26 11:37:08;;;;;;;10.80;6.70;;;22.80;51.70;;;;;;5034167;28;20029;-67
2021/08/26 11:39:39;;;;;;;10.52;6.22;;;22.80;50.90;;;;;;5034969;28;20021;-67
2021/08/26 11:42:11;;;;;;;10.18;6.38;;;22.80;51.40;;;;;;5034763;28;20032;-67
2021/08/26 11:44:37;;;;;;;16.30;6.93;;;22.90;50.80;;;;;;5034678;28;20032;-67
2021/08/26 11:47:03;;;;;;;10.38;6.80;;;22.90;50.30;;;;;;5033509;28;20033;-67
2021/08/26 11:49:36;;;;;;;10.27;6.68;;;22.90;49.60;;;;;;5033280;28;20030;-67
2021/08/26 11:52:11;;;;;;;13.27;7.05;;;22.90;49.30;;;;;;5034612;28;20014;-67
2021/08/26 11:54:38;;;;;;;10.18;6.43;;;22.80;48.90;;;;;;5034613;28;20103;-67
2021/08/26 11:57:05;;;;;;;11.48;6.53;;;22.80;49.10;;;;;;5034443;28;20030;-67
2021/08/26 11:59:35;;;;;;;11.88;6.72;;;22.80;49.40;;;;;;5034370;28;20155;-67
2021/08/26 12:02:24;;;;;;;9.45;5.80;;;22.70;49.20;;;;;;5034410;28;20060;-67
2021/08/26 12:04:55;;;;;;;8.75;5.82;;;22.70;50.10;;;;;;5034266;28;20049;-67
2021/08/26 12:07:27;;;;;;;10.50;5.47;;;22.70;49.10;;;;;;5034252;28;20037;-66
2021/08/26 12:09:58;;;;;;;8.48;5.35;;;22.70;49.30;;;;;;5034217;28;20493;-66
2021/08/26 12:12:24;;;;;;;6.70;4.10;;;22.60;50.70;;;;;;5034240;28;20475;-67
2021/08/26 12:14:50;;;;;;;7.85;5.32;;;22.60;50.70;;;;;;5034119;28;20029;-67
2021/08/26 12:17:20;;;;;;;8.57;4.93;;;22.40;50.40;;;;;;5034092;28;20017;-66
2021/08/26 12:19:48;;;;;;;7.00;4.72;;;22.30;51.10;;;;;;5033988;28;20022;-66
2021/08/26 12:22:16;;;;;;;8.35;4.93;;;22.20;51.80;;;;;;5033954;28;20029;-66
2021/08/26 12:24:53;;;;;;;6.70;4.28;;;22.10;51.80;;;;;;5033889;28;20096;-66
2021/08/26 12:27:19;;;;;;;9.20;5.05;;;22.00;52.60;;;;;;5033759;28;20021;-66
2021/08/26 12:29:48;;;;;;;9.68;5.78;;;22.00;52.90;;;;;;5047384;28;20041;-66
2021/08/26 12:32:36;;;;;;;12.27;6.40;;;21.90;53.10;;;;;;5053370;28;20509;-66
2021/08/26 12:35:17;;;;;;;11.32;6.95;;;21.70;54.30;;;;;;5035753;28;20021;-66
2021/08/26 12:37:54;;;;;;;10.65;5.85;;;21.50;55.50;;;;;;5053551;28;20075;-66
2021/08/26 12:40:20;;;;;;;7.95;5.47;;;21.30;56.10;;;;;;5053452;28;20064;-66
2021/08/26 12:43:06;;;;;;;13.75;6.40;;;21.10;56.50;;;;;;5053576;28;20036;-67
2021/08/26 12:45:36;;;;;;;8.18;5.40;;;20.90;56.80;;;;;;5035673;28;20429;-68
2021/08/26 12:48:20;;;;;;;13.18;7.88;;;20.70;58.40;;;;;;5053348;28;20024;-69
2021/08/26 12:50:46;;;;;;;9.25;5.70;;;20.50;58.50;;;;;;5053401;28;20076;-69
2021/08/26 12:53:19;;;;;;;8.65;6.00;;;20.30;59.80;;;;;;5053032;28;20531;-68
2021/08/26 12:56:07;;;;;;;15.35;7.63;;;20.20;60.90;;;;;;5053362;28;20021;-68